PWSweather.com
Personal Weather Stations
Station Observations

ChardChardGB

Lat: 50.877408, Lon: -2.94964741

Elevation: 341

Station Type: WS3083

http://www.merriott-astro.co.uk/weather/index.htm

High Low Average
Temperature 55.6°F13.1°F 46.4°F8.0°F 51.8°F11.0°F
Dew Point 49.7°F9.8°F 39.6°F4.2°F 46.5°F8.1°F
Winds 17.3 mph SW27.8 mph SW 2.5 mph 4.0 mph 9.4 mph 15.1 mph
Wind Gusts 22.1 mph35.6 mph 4.5 mph7.2 mph 13.1 mph21.1 mph
Humidity 87% 76% 82%
Pressure 29.89 in1012.20 in 29.71 in1006.10 in -
Precipitation 0.55 in14.00 in - -
Hour Temp Dew Point Humidity Winds Wind Gusts Pressure Precip Precip Rate Daily Precip Total
12:00 AM 46.4°F8.0°C 39.6°F4.2°C 77% 7.8 mph SW12.6 kmh SW 9.8 mph15.8 kmh 29.89 in1012.2 mb 0.00 in0.0 mm 0.00 in0.0 mm 0.00 in0.0 mm
12:10 AM 46.8°F8.2°C 39.9°F4.4°C 77% 6.6 mph SSW10.6 kmh SSW 9.8 mph15.8 kmh 29.89 in1012.2 mb 0.00 in0.0 mm 0.00 in0.0 mm 0.00 in0.0 mm
12:20 AM 46.9°F8.3°C 40.4°F4.7°C 78% 6.1 mph S9.8 kmh S 8.3 mph13.4 kmh 29.89 in1012.2 mb 0.00 in0.0 mm 0.00 in0.0 mm 0.00 in0.0 mm
12:30 AM 47.5°F8.6°C 41.3°F5.2°C 79% 7.4 mph S11.9 kmh S 9.2 mph14.8 kmh 29.89 in1012.2 mb 0.00 in0.0 mm 0.00 in0.0 mm 0.00 in0.0 mm
12:40 AM 47.7°F8.7°C 41.5°F5.3°C 79% 4.5 mph S7.2 kmh S 6.9 mph11.1 kmh 29.88 in1011.9 mb 0.00 in0.0 mm 0.00 in0.0 mm 0.00 in0.0 mm
12:50 AM 47.7°F8.7°C 41.8°F5.4°C 80% 5.0 mph SSW8.0 kmh SSW 7.6 mph12.2 kmh 29.87 in1011.5 mb 0.00 in0.0 mm 0.00 in0.0 mm 0.00 in0.0 mm
01:00 AM 48.0°F8.9°C 42.2°F5.7°C 80% 6.8 mph SW10.9 kmh SW 9.2 mph14.8 kmh 29.88 in1011.9 mb 0.00 in0.0 mm 0.00 in0.0 mm 0.00 in0.0 mm
01:10 AM 48.0°F8.9°C 42.2°F5.7°C 80% 10.0 mph SW16.1 kmh SW 13.0 mph20.9 kmh 29.87 in1011.5 mb 0.00 in0.0 mm 0.00 in0.0 mm 0.00 in0.0 mm
01:20 AM 48.4°F9.1°C 42.5°F5.8°C 80% 11.3 mph SSW18.2 kmh SSW 14.5 mph23.3 kmh 29.87 in1011.5 mb 0.00 in0.0 mm 0.00 in0.0 mm 0.00 in0.0 mm
01:30 AM 48.7°F9.3°C 42.5°F5.8°C 79% 10.0 mph SW16.1 kmh SW 16.8 mph27.0 kmh 29.86 in1011.2 mb 0.00 in0.0 mm 0.00 in0.0 mm 0.00 in0.0 mm
01:40 AM 48.9°F9.4°C 42.7°F5.9°C 79% 12.9 mph S20.8 kmh S 15.9 mph25.6 kmh 29.85 in1010.8 mb 0.00 in0.0 mm 0.00 in0.0 mm 0.00 in0.0 mm
01:50 AM 49.1°F9.5°C 43.2°F6.2°C 80% 12.9 mph S20.8 kmh S 17.4 mph28.0 kmh 29.85 in1010.8 mb 0.00 in0.0 mm 0.00 in0.0 mm 0.00 in0.0 mm
02:00 AM 49.1°F9.5°C 43.2°F6.2°C 80% 13.3 mph SSW21.4 kmh SSW 15.9 mph25.6 kmh 29.85 in1010.8 mb 0.00 in0.0 mm 0.00 in0.0 mm 0.00 in0.0 mm
02:10 AM 49.3°F9.6°C 43.4°F6.3°C 80% 13.8 mph S22.2 kmh S 15.9 mph25.6 kmh 29.84 in1010.5 mb 0.00 in0.0 mm 0.00 in0.0 mm 0.00 in0.0 mm
02:20 AM 49.3°F9.6°C 43.4°F6.3°C 80% 13.7 mph SW22.0 kmh SW 19.7 mph31.7 kmh 29.84 in1010.5 mb 0.00 in0.0 mm 0.00 in0.0 mm 0.00 in0.0 mm
02:30 AM 49.5°F9.7°C 43.6°F6.4°C 80% 11.4 mph SSW18.3 kmh SSW 15.2 mph24.5 kmh 29.84 in1010.5 mb 0.00 in0.0 mm 0.00 in0.0 mm 0.00 in0.0 mm
02:40 AM 49.6°F9.8°C 43.7°F6.5°C 80% 14.1 mph S22.7 kmh S 17.4 mph28.0 kmh 29.84 in1010.5 mb 0.00 in0.0 mm 0.00 in0.0 mm 0.00 in0.0 mm
02:50 AM 49.6°F9.8°C 43.7°F6.5°C 80% 12.3 mph SSW19.8 kmh SSW 17.4 mph28.0 kmh 29.84 in1010.5 mb 0.00 in0.0 mm 0.00 in0.0 mm 0.00 in0.0 mm
03:00 AM 50.0°F10.0°C 44.4°F6.9°C 81% 11.5 mph S18.5 kmh S 15.9 mph25.6 kmh 29.84 in1010.5 mb 0.00 in0.0 mm 0.00 in0.0 mm 0.00 in0.0 mm
03:10 AM 50.0°F10.0°C 44.4°F6.9°C 81% 13.3 mph SSW21.4 kmh SSW 21.3 mph34.3 kmh 29.83 in1010.2 mb 0.00 in0.0 mm 0.00 in0.0 mm 0.00 in0.0 mm
03:20 AM 50.0°F10.0°C 44.4°F6.9°C 81% 12.4 mph SSW20.0 kmh SSW 15.9 mph25.6 kmh 29.83 in1010.2 mb 0.00 in0.0 mm 0.00 in0.0 mm 0.00 in0.0 mm
03:30 AM 50.2°F10.1°C 44.6°F7.0°C 81% 13.6 mph SW21.9 kmh SW 17.4 mph28.0 kmh 29.83 in1010.2 mb 0.00 in0.0 mm 0.00 in0.0 mm 0.00 in0.0 mm
03:40 AM 50.2°F10.1°C 44.6°F7.0°C 81% 14.0 mph SSW22.5 kmh SSW 17.4 mph28.0 kmh 29.82 in1009.8 mb 0.00 in0.0 mm 0.00 in0.0 mm 0.00 in0.0 mm
03:50 AM 50.2°F10.1°C 44.9°F7.2°C 82% 11.4 mph SSW18.3 kmh SSW 15.2 mph24.5 kmh 29.82 in1009.8 mb 0.00 in0.0 mm 0.00 in0.0 mm 0.00 in0.0 mm
04:00 AM 50.0°F10.0°C 44.7°F7.1°C 82% 9.7 mph SW15.6 kmh SW 13.6 mph21.9 kmh 29.82 in1009.8 mb 0.00 in0.0 mm 0.00 in0.0 mm 0.00 in0.0 mm
04:10 AM 50.0°F10.0°C 45.0°F7.2°C 83% 10.0 mph SSW16.1 kmh SSW 14.5 mph23.3 kmh 29.81 in1009.5 mb 0.00 in0.0 mm 0.00 in0.0 mm 0.00 in0.0 mm
04:20 AM 50.2°F10.1°C 45.2°F7.3°C 83% 11.7 mph SW18.8 kmh SW 15.9 mph25.6 kmh 29.80 in1009.1 mb 0.01 in0.3 mm 0.06 in1.5 mm 0.01 in0.3 mm
04:30 AM 50.2°F10.1°C 45.2°F7.3°C 83% 11.6 mph S18.7 kmh S 19.0 mph30.6 kmh 29.80 in1009.1 mb 0.01 in0.3 mm 0.00 in0.0 mm 0.01 in0.3 mm
04:40 AM 50.2°F10.1°C 45.5°F7.5°C 84% 14.5 mph SW23.3 kmh SW 19.0 mph30.6 kmh 29.80 in1009.1 mb 0.01 in0.3 mm 0.00 in0.0 mm 0.01 in0.3 mm
04:50 AM 50.4°F10.2°C 45.7°F7.6°C 84% 14.1 mph SSW22.7 kmh SSW 20.6 mph33.2 kmh 29.80 in1009.1 mb 0.02 in0.5 mm 0.06 in1.5 mm 0.02 in0.5 mm
05:00 AM 50.4°F10.2°C 45.7°F7.6°C 84% 17.3 mph SW27.8 kmh SW 22.1 mph35.6 kmh 29.78 in1008.5 mb 0.02 in0.5 mm 0.00 in0.0 mm 0.02 in0.5 mm
05:10 AM 50.4°F10.2°C 45.7°F7.6°C 84% 13.8 mph SSW22.2 kmh SSW 16.8 mph27.0 kmh 29.78 in1008.5 mb 0.04 in1.0 mm 0.12 in3.0 mm 0.04 in1.0 mm
05:20 AM 50.5°F10.3°C 46.2°F7.9°C 85% 14.0 mph S22.5 kmh S 19.7 mph31.7 kmh 29.78 in1008.5 mb 0.02 in0.5 mm 0.00 in0.0 mm 0.04 in1.0 mm
05:30 AM 50.5°F10.3°C 46.2°F7.9°C 85% 12.2 mph SSW19.6 kmh SSW 20.6 mph33.2 kmh 29.78 in1008.5 mb 0.02 in0.5 mm 0.00 in0.0 mm 0.04 in1.0 mm
05:40 AM 50.5°F10.3°C 46.2°F7.9°C 85% 12.5 mph S20.1 kmh S 19.7 mph31.7 kmh 29.77 in1008.1 mb 0.02 in0.5 mm 0.00 in0.0 mm 0.04 in1.0 mm
05:50 AM 50.7°F10.4°C 46.4°F8.0°C 85% 12.8 mph S20.6 kmh S 15.2 mph24.5 kmh 29.78 in1008.5 mb 0.01 in0.3 mm 0.00 in0.0 mm 0.04 in1.0 mm
06:00 AM 50.7°F10.4°C 46.4°F8.0°C 85% 12.5 mph SW20.1 kmh SW 16.8 mph27.0 kmh 29.78 in1008.5 mb 0.04 in1.0 mm 0.04 in1.0 mm 0.06 in1.5 mm
06:10 AM 50.9°F10.5°C 46.6°F8.1°C 85% 11.8 mph SSW19.0 kmh SSW 15.2 mph24.5 kmh 29.77 in1008.1 mb 0.04 in1.0 mm 0.00 in0.0 mm 0.07 in1.8 mm
06:20 AM 50.9°F10.5°C 46.9°F8.3°C 86% 10.5 mph SSW16.9 kmh SSW 15.2 mph24.5 kmh 29.77 in1008.1 mb 0.04 in1.0 mm 0.00 in0.0 mm 0.07 in1.8 mm
06:30 AM 50.9°F10.5°C 46.9°F8.3°C 86% 10.2 mph S16.4 kmh S 14.5 mph23.3 kmh 29.78 in1008.5 mb 0.04 in1.0 mm 0.00 in0.0 mm 0.07 in1.8 mm
06:40 AM 51.1°F10.6°C 47.0°F8.3°C 86% 9.2 mph SSW14.8 kmh SSW 13.0 mph20.9 kmh 29.77 in1008.1 mb 0.04 in1.0 mm 0.00 in0.0 mm 0.07 in1.8 mm
06:50 AM 51.1°F10.6°C 47.0°F8.3°C 86% 8.9 mph SW14.3 kmh SW 13.0 mph20.9 kmh 29.77 in1008.1 mb 0.04 in1.0 mm 0.00 in0.0 mm 0.07 in1.8 mm
07:00 AM 51.1°F10.6°C 47.0°F8.3°C 86% 10.0 mph SSW16.1 kmh SSW 15.2 mph24.5 kmh 29.78 in1008.5 mb 0.01 in0.3 mm 0.00 in0.0 mm 0.07 in1.8 mm
07:10 AM 51.3°F10.7°C 47.2°F8.4°C 86% 10.4 mph S16.7 kmh S 14.5 mph23.3 kmh 29.77 in1008.1 mb 0.00 in0.0 mm 0.00 in0.0 mm 0.07 in1.8 mm
07:20 AM 51.3°F10.7°C 47.2°F8.4°C 86% 9.4 mph S15.1 kmh S 13.0 mph20.9 kmh 29.77 in1008.1 mb 0.00 in0.0 mm 0.00 in0.0 mm 0.07 in1.8 mm
07:30 AM 51.6°F10.9°C 47.9°F8.8°C 87% 9.4 mph S15.1 kmh S 12.1 mph19.5 kmh 29.76 in1007.8 mb 0.00 in0.0 mm 0.00 in0.0 mm 0.07 in1.8 mm
07:40 AM 52.0°F11.1°C 48.2°F9.0°C 87% 9.7 mph SW15.6 kmh SW 12.1 mph19.5 kmh 29.76 in1007.8 mb 0.00 in0.0 mm 0.00 in0.0 mm 0.07 in1.8 mm
07:50 AM 52.2°F11.2°C 48.4°F9.1°C 87% 10.2 mph SSW16.4 kmh SSW 12.1 mph19.5 kmh 29.76 in1007.8 mb 0.00 in0.0 mm 0.00 in0.0 mm 0.07 in1.8 mm
08:00 AM 52.3°F11.3°C 48.6°F9.2°C 87% 8.5 mph SSW13.7 kmh SSW 13.0 mph20.9 kmh 29.77 in1008.1 mb 0.00 in0.0 mm 0.00 in0.0 mm 0.07 in1.8 mm
08:10 AM 52.5°F11.4°C 48.8°F9.3°C 87% 11.1 mph SW17.9 kmh SW 15.9 mph25.6 kmh 29.76 in1007.8 mb 0.00 in0.0 mm 0.00 in0.0 mm 0.07 in1.8 mm
08:20 AM 52.5°F11.4°C 48.8°F9.3°C 87% 10.5 mph SSW16.9 kmh SSW 13.0 mph20.9 kmh 29.77 in1008.1 mb 0.00 in0.0 mm 0.00 in0.0 mm 0.07 in1.8 mm
08:30 AM 52.5°F11.4°C 48.8°F9.3°C 87% 10.0 mph S16.1 kmh S 12.1 mph19.5 kmh 29.77 in1008.1 mb 0.00 in0.0 mm 0.00 in0.0 mm 0.07 in1.8 mm
08:40 AM 52.5°F11.4°C 48.8°F9.3°C 87% 11.6 mph S18.7 kmh S 19.0 mph30.6 kmh 29.76 in1007.8 mb 0.00 in0.0 mm 0.00 in0.0 mm 0.07 in1.8 mm
08:50 AM 52.3°F11.3°C 48.6°F9.2°C 87% 14.2 mph SW22.9 kmh SW 19.0 mph30.6 kmh 29.76 in1007.8 mb 0.00 in0.0 mm 0.00 in0.0 mm 0.07 in1.8 mm
09:00 AM 52.3°F11.3°C 48.6°F9.2°C 87% 9.5 mph SW15.3 kmh SW 13.6 mph21.9 kmh 29.77 in1008.1 mb 0.00 in0.0 mm 0.00 in0.0 mm 0.07 in1.8 mm
09:10 AM 52.5°F11.4°C 48.8°F9.3°C 87% 9.6 mph SW15.4 kmh SW 13.6 mph21.9 kmh 29.77 in1008.1 mb 0.00 in0.0 mm 0.00 in0.0 mm 0.07 in1.8 mm
09:20 AM 52.7°F11.5°C 48.9°F9.4°C 87% 11.0 mph SW17.7 kmh SW 18.3 mph29.5 kmh 29.77 in1008.1 mb 0.00 in0.0 mm 0.00 in0.0 mm 0.07 in1.8 mm
09:30 AM 52.7°F11.5°C 48.9°F9.4°C 87% 9.2 mph SSW14.8 kmh SSW 14.5 mph23.3 kmh 29.76 in1007.8 mb 0.00 in0.0 mm 0.00 in0.0 mm 0.07 in1.8 mm
09:40 AM 52.7°F11.5°C 48.9°F9.4°C 87% 9.2 mph SW14.8 kmh SW 13.6 mph21.9 kmh 29.77 in1008.1 mb 0.00 in0.0 mm 0.00 in0.0 mm 0.07 in1.8 mm
09:50 AM 52.7°F11.5°C 48.9°F9.4°C 87% 10.3 mph SW16.6 kmh SW 14.5 mph23.3 kmh 29.77 in1008.1 mb 0.00 in0.0 mm 0.00 in0.0 mm 0.07 in1.8 mm
10:00 AM 52.9°F11.6°C 49.1°F9.5°C 87% 8.6 mph SW13.8 kmh SW 13.0 mph20.9 kmh 29.77 in1008.1 mb 0.00 in0.0 mm 0.00 in0.0 mm 0.07 in1.8 mm
10:10 AM 53.2°F11.8°C 49.5°F9.7°C 87% 8.9 mph WSW14.3 kmh WSW 14.5 mph23.3 kmh 29.77 in1008.1 mb 0.00 in0.0 mm 0.00 in0.0 mm 0.07 in1.8 mm
10:20 AM 53.4°F11.9°C 49.7°F9.8°C 87% 9.2 mph S14.8 kmh S 13.6 mph21.9 kmh 29.77 in1008.1 mb 0.00 in0.0 mm 0.00 in0.0 mm 0.07 in1.8 mm
10:30 AM 53.4°F11.9°C 49.3°F9.6°C 86% 11.2 mph SW18.0 kmh SW 16.8 mph27.0 kmh 29.77 in1008.1 mb 0.00 in0.0 mm 0.00 in0.0 mm 0.07 in1.8 mm
10:40 AM 53.4°F11.9°C 49.3°F9.6°C 86% 11.1 mph S17.9 kmh S 15.2 mph24.5 kmh 29.77 in1008.1 mb 0.00 in0.0 mm 0.00 in0.0 mm 0.07 in1.8 mm
10:50 AM 53.6°F12.0°C 49.2°F9.6°C 85% 11.1 mph S17.9 kmh S 13.0 mph20.9 kmh 29.78 in1008.5 mb 0.00 in0.0 mm 0.00 in0.0 mm 0.07 in1.8 mm
11:00 AM 53.6°F12.0°C 49.2°F9.6°C 85% 8.7 mph SSW14.0 kmh SSW 13.0 mph20.9 kmh 29.78 in1008.5 mb 0.00 in0.0 mm 0.00 in0.0 mm 0.07 in1.8 mm
11:10 AM 54.1°F12.3°C 49.7°F9.8°C 85% 9.1 mph SW14.6 kmh SW 13.6 mph21.9 kmh 29.77 in1008.1 mb 0.00 in0.0 mm 0.00 in0.0 mm 0.07 in1.8 mm
11:20 AM 54.1°F12.3°C 49.4°F9.7°C 84% 10.0 mph SSW16.1 kmh SSW 12.1 mph19.5 kmh 29.77 in1008.1 mb 0.00 in0.0 mm 0.00 in0.0 mm 0.07 in1.8 mm
11:30 AM 55.4°F13.0°C 49.7°F9.8°C 81% 10.6 mph S17.1 kmh S 15.2 mph24.5 kmh 29.76 in1007.8 mb 0.00 in0.0 mm 0.00 in0.0 mm 0.07 in1.8 mm
11:40 AM 55.0°F12.8°C 48.7°F9.3°C 79% 10.5 mph S16.9 kmh S 12.1 mph19.5 kmh 29.76 in1007.8 mb 0.00 in0.0 mm 0.00 in0.0 mm 0.07 in1.8 mm
11:50 AM 54.7°F12.6°C 48.0°F8.9°C 78% 9.9 mph S15.9 kmh S 15.2 mph24.5 kmh 29.76 in1007.8 mb 0.00 in0.0 mm 0.00 in0.0 mm 0.07 in1.8 mm
12:00 PM 55.0°F12.8°C 48.7°F9.3°C 79% 8.8 mph S14.2 kmh S 13.6 mph21.9 kmh 29.75 in1007.5 mb 0.00 in0.0 mm 0.00 in0.0 mm 0.07 in1.8 mm
12:10 PM 55.2°F12.9°C 48.5°F9.2°C 78% 7.8 mph SSW12.6 kmh SSW 11.4 mph18.3 kmh 29.75 in1007.5 mb 0.00 in0.0 mm 0.00 in0.0 mm 0.07 in1.8 mm
12:20 PM 55.0°F12.8°C 48.0°F8.9°C 77% 7.9 mph SSW12.7 kmh SSW 12.1 mph19.5 kmh 29.75 in1007.5 mb 0.00 in0.0 mm 0.00 in0.0 mm 0.07 in1.8 mm
12:30 PM 55.0°F12.8°C 48.0°F8.9°C 77% 8.6 mph S13.8 kmh S 12.1 mph19.5 kmh 29.74 in1007.1 mb 0.00 in0.0 mm 0.00 in0.0 mm 0.07 in1.8 mm
12:40 PM 55.4°F13.0°C 48.3°F9.1°C 77% 8.4 mph S13.5 kmh S 11.4 mph18.3 kmh 29.74 in1007.1 mb 0.00 in0.0 mm 0.00 in0.0 mm 0.07 in1.8 mm
12:50 PM 55.6°F13.1°C 48.1°F8.9°C 76% 7.9 mph S12.7 kmh S 10.7 mph17.2 kmh 29.75 in1007.5 mb 0.00 in0.0 mm 0.00 in0.0 mm 0.07 in1.8 mm
01:00 PM 55.0°F12.8°C 47.6°F8.7°C 76% 11.6 mph S18.7 kmh S 14.5 mph23.3 kmh 29.75 in1007.5 mb 0.00 in0.0 mm 0.00 in0.0 mm 0.07 in1.8 mm
01:10 PM 54.7°F12.6°C 47.6°F8.7°C 77% 12.1 mph SW19.5 kmh SW 15.2 mph24.5 kmh 29.74 in1007.1 mb 0.00 in0.0 mm 0.00 in0.0 mm 0.07 in1.8 mm
01:20 PM 54.7°F12.6°C 48.0°F8.9°C 78% 9.2 mph S14.8 kmh S 12.1 mph19.5 kmh 29.74 in1007.1 mb 0.00 in0.0 mm 0.00 in0.0 mm 0.07 in1.8 mm
01:30 PM 54.5°F12.5°C 47.8°F8.8°C 78% 8.7 mph SSW14.0 kmh SSW 12.1 mph19.5 kmh 29.73 in1006.8 mb 0.00 in0.0 mm 0.00 in0.0 mm 0.07 in1.8 mm
01:40 PM 54.3°F12.4°C 49.0°F9.4°C 82% 7.1 mph S11.4 kmh S 9.8 mph15.8 kmh 29.73 in1006.8 mb 0.00 in0.0 mm 0.00 in0.0 mm 0.07 in1.8 mm
01:50 PM 54.3°F12.4°C 49.0°F9.4°C 82% 6.8 mph S10.9 kmh S 9.8 mph15.8 kmh 29.72 in1006.4 mb 0.00 in0.0 mm 0.00 in0.0 mm 0.07 in1.8 mm
02:00 PM 54.7°F12.6°C 48.6°F9.2°C 80% 8.4 mph S13.5 kmh S 14.5 mph23.3 kmh 29.72 in1006.4 mb 0.00 in0.0 mm 0.00 in0.0 mm 0.07 in1.8 mm
02:10 PM 54.7°F12.6°C 48.6°F9.2°C 80% 9.2 mph SSW14.8 kmh SSW 13.0 mph20.9 kmh 29.72 in1006.4 mb 0.00 in0.0 mm 0.00 in0.0 mm 0.07 in1.8 mm
02:20 PM 54.9°F12.7°C 48.8°F9.3°C 80% 9.5 mph SW15.3 kmh SW 13.6 mph21.9 kmh 29.72 in1006.4 mb 0.00 in0.0 mm 0.00 in0.0 mm 0.07 in1.8 mm
02:30 PM 55.0°F12.8°C 48.7°F9.3°C 79% 9.9 mph SW15.9 kmh SW 14.5 mph23.3 kmh 29.72 in1006.4 mb 0.00 in0.0 mm 0.00 in0.0 mm 0.07 in1.8 mm
02:40 PM 55.2°F12.9°C 48.5°F9.2°C 78% 9.6 mph SSW15.4 kmh SSW 13.6 mph21.9 kmh 29.71 in1006.1 mb 0.00 in0.0 mm 0.00 in0.0 mm 0.07 in1.8 mm
02:50 PM 55.4°F13.0°C 48.3°F9.1°C 77% 8.5 mph S13.7 kmh S 11.4 mph18.3 kmh 29.71 in1006.1 mb 0.00 in0.0 mm 0.00 in0.0 mm 0.07 in1.8 mm
03:00 PM 54.9°F12.7°C 47.8°F8.8°C 77% 8.3 mph SW13.4 kmh SW 11.4 mph18.3 kmh 29.72 in1006.4 mb 0.00 in0.0 mm 0.00 in0.0 mm 0.07 in1.8 mm
03:10 PM 54.5°F12.5°C 47.8°F8.8°C 78% 7.3 mph SW11.7 kmh SW 9.2 mph14.8 kmh 29.72 in1006.4 mb 0.00 in0.0 mm 0.00 in0.0 mm 0.07 in1.8 mm
03:20 PM 54.3°F12.4°C 48.6°F9.2°C 81% 8.1 mph SSW13.0 kmh SSW 9.8 mph15.8 kmh 29.72 in1006.4 mb 0.00 in0.0 mm 0.00 in0.0 mm 0.07 in1.8 mm
03:30 PM 54.3°F12.4°C 49.0°F9.4°C 82% 7.0 mph S11.3 kmh S 10.7 mph17.2 kmh 29.72 in1006.4 mb 0.00 in0.0 mm 0.00 in0.0 mm 0.07 in1.8 mm
03:40 PM 54.1°F12.3°C 48.8°F9.3°C 82% 6.2 mph SSW10.0 kmh SSW 9.2 mph14.8 kmh 29.72 in1006.4 mb 0.00 in0.0 mm 0.00 in0.0 mm 0.07 in1.8 mm
03:50 PM 54.1°F12.3°C 48.8°F9.3°C 82% 7.6 mph S12.2 kmh S 10.7 mph17.2 kmh 29.73 in1006.8 mb 0.00 in0.0 mm 0.00 in0.0 mm 0.07 in1.8 mm
04:00 PM 54.1°F12.3°C 48.8°F9.3°C 82% 7.3 mph S11.7 kmh S 9.8 mph15.8 kmh 29.73 in1006.8 mb 0.00 in0.0 mm 0.00 in0.0 mm 0.07 in1.8 mm
04:10 PM 54.0°F12.2°C 48.6°F9.2°C 82% 8.0 mph SSW12.9 kmh SSW 10.7 mph17.2 kmh 29.73 in1006.8 mb 0.00 in0.0 mm 0.00 in0.0 mm 0.07 in1.8 mm
04:20 PM 53.8°F12.1°C 48.4°F9.1°C 82% 6.5 mph SSW10.5 kmh SSW 8.3 mph13.4 kmh 29.74 in1007.1 mb 0.00 in0.0 mm 0.00 in0.0 mm 0.07 in1.8 mm
04:30 PM 53.8°F12.1°C 48.7°F9.3°C 83% 4.5 mph SSW7.2 kmh SSW 9.2 mph14.8 kmh 29.75 in1007.5 mb 0.01 in0.3 mm 0.06 in1.5 mm 0.08 in2.0 mm
04:40 PM 53.8°F12.1°C 48.7°F9.3°C 83% 2.7 mph WNW4.3 kmh WNW 6.0 mph9.7 kmh 29.76 in1007.8 mb 0.02 in0.5 mm 0.06 in1.5 mm 0.09 in2.3 mm
04:50 PM 53.8°F12.1°C 48.7°F9.3°C 83% 4.5 mph SW7.2 kmh SW 7.6 mph12.2 kmh 29.76 in1007.8 mb 0.02 in0.5 mm 0.00 in0.0 mm 0.09 in2.3 mm
05:00 PM 53.6°F12.0°C 48.6°F9.2°C 83% 3.0 mph S4.8 kmh S 4.5 mph7.2 kmh 29.76 in1007.8 mb 0.02 in0.5 mm 0.00 in0.0 mm 0.09 in2.3 mm
05:10 PM 53.8°F12.1°C 48.7°F9.3°C 83% 4.1 mph S6.6 kmh S 5.4 mph8.7 kmh 29.75 in1007.5 mb 0.02 in0.5 mm 0.00 in0.0 mm 0.09 in2.3 mm
05:20 PM 53.6°F12.0°C 48.6°F9.2°C 83% 3.2 mph SW5.1 kmh SW 5.4 mph8.7 kmh 29.76 in1007.8 mb 0.02 in0.5 mm 0.00 in0.0 mm 0.09 in2.3 mm
05:30 PM 53.2°F11.8°C 48.2°F9.0°C 83% 3.6 mph SSW5.8 kmh SSW 5.4 mph8.7 kmh 29.77 in1008.1 mb 0.01 in0.3 mm 0.00 in0.0 mm 0.09 in2.3 mm
05:40 PM 53.1°F11.7°C 48.0°F8.9°C 83% 2.5 mph SW4.0 kmh SW 4.5 mph7.2 kmh 29.76 in1007.8 mb 0.00 in0.0 mm 0.00 in0.0 mm 0.09 in2.3 mm
05:50 PM 52.9°F11.6°C 47.9°F8.8°C 83% 3.4 mph SSW5.5 kmh SSW 6.9 mph11.1 kmh 29.76 in1007.8 mb 0.00 in0.0 mm 0.00 in0.0 mm 0.09 in2.3 mm
06:00 PM 52.7°F11.5°C 47.7°F8.7°C 83% 6.3 mph SW10.1 kmh SW 10.7 mph17.2 kmh 29.76 in1007.8 mb 0.00 in0.0 mm 0.00 in0.0 mm 0.09 in2.3 mm
06:10 PM 52.7°F11.5°C 47.7°F8.7°C 83% 5.9 mph SW9.5 kmh SW 9.8 mph15.8 kmh 29.77 in1008.1 mb 0.00 in0.0 mm 0.00 in0.0 mm 0.09 in2.3 mm
06:20 PM 52.5°F11.4°C 47.5°F8.6°C 83% 3.8 mph S6.1 kmh S 6.0 mph9.7 kmh 29.77 in1008.1 mb 0.00 in0.0 mm 0.00 in0.0 mm 0.09 in2.3 mm
06:30 PM 52.3°F11.3°C 47.3°F8.5°C 83% 6.0 mph SSW9.7 kmh SSW 9.2 mph14.8 kmh 29.78 in1008.5 mb 0.00 in0.0 mm 0.00 in0.0 mm 0.09 in2.3 mm
06:40 PM 52.0°F11.1°C 46.7°F8.2°C 82% 5.5 mph SSW8.9 kmh SSW 6.9 mph11.1 kmh 29.77 in1008.1 mb 0.00 in0.0 mm 0.00 in0.0 mm 0.09 in2.3 mm
06:50 PM 51.6°F10.9°C 46.3°F7.9°C 82% 5.6 mph SW9.0 kmh SW 9.2 mph14.8 kmh 29.77 in1008.1 mb 0.00 in0.0 mm 0.00 in0.0 mm 0.09 in2.3 mm
07:00 PM 51.3°F10.7°C 46.0°F7.8°C 82% 6.3 mph S10.1 kmh S 8.3 mph13.4 kmh 29.77 in1008.1 mb 0.00 in0.0 mm 0.00 in0.0 mm 0.09 in2.3 mm
07:10 PM 50.9°F10.5°C 45.6°F7.6°C 82% 5.2 mph S8.4 kmh S 10.7 mph17.2 kmh 29.77 in1008.1 mb 0.00 in0.0 mm 0.00 in0.0 mm 0.09 in2.3 mm
07:20 PM 50.7°F10.4°C 45.4°F7.4°C 82% 4.2 mph SSW6.8 kmh SSW 5.4 mph8.7 kmh 29.78 in1008.5 mb 0.00 in0.0 mm 0.00 in0.0 mm 0.09 in2.3 mm
07:30 PM 50.5°F10.3°C 45.3°F7.4°C 82% 6.0 mph S9.7 kmh S 11.4 mph18.3 kmh 29.78 in1008.5 mb 0.00 in0.0 mm 0.00 in0.0 mm 0.09 in2.3 mm
07:40 PM 50.4°F10.2°C 45.1°F7.3°C 82% 6.0 mph SSW9.7 kmh SSW 8.3 mph13.4 kmh 29.76 in1007.8 mb 0.00 in0.0 mm 0.00 in0.0 mm 0.09 in2.3 mm
07:50 PM 50.2°F10.1°C 44.9°F7.2°C 82% 8.6 mph S13.8 kmh S 10.7 mph17.2 kmh 29.76 in1007.8 mb 0.00 in0.0 mm 0.00 in0.0 mm 0.09 in2.3 mm
08:00 PM 50.0°F10.0°C 44.7°F7.1°C 82% 8.5 mph SSW13.7 kmh SSW 13.6 mph21.9 kmh 29.77 in1008.1 mb 0.00 in0.0 mm 0.00 in0.0 mm 0.09 in2.3 mm
08:10 PM 50.0°F10.0°C 44.7°F7.1°C 82% 8.6 mph S13.8 kmh S 13.0 mph20.9 kmh 29.77 in1008.1 mb 0.00 in0.0 mm 0.00 in0.0 mm 0.09 in2.3 mm
08:20 PM 49.8°F9.9°C 44.6°F7.0°C 82% 8.1 mph SSW13.0 kmh SSW 10.7 mph17.2 kmh 29.77 in1008.1 mb 0.00 in0.0 mm 0.00 in0.0 mm 0.09 in2.3 mm
08:30 PM 49.6°F9.8°C 44.4°F6.9°C 82% 8.6 mph SW13.8 kmh SW 10.7 mph17.2 kmh 29.77 in1008.1 mb 0.00 in0.0 mm 0.00 in0.0 mm 0.09 in2.3 mm
08:40 PM 49.6°F9.8°C 44.4°F6.9°C 82% 8.8 mph SW14.2 kmh SW 10.7 mph17.2 kmh 29.77 in1008.1 mb 0.00 in0.0 mm 0.00 in0.0 mm 0.09 in2.3 mm
08:50 PM 49.6°F9.8°C 44.4°F6.9°C 82% 8.3 mph SSW13.4 kmh SSW 9.8 mph15.8 kmh 29.76 in1007.8 mb 0.00 in0.0 mm 0.00 in0.0 mm 0.09 in2.3 mm
09:00 PM 49.6°F9.8°C 44.4°F6.9°C 82% 9.7 mph S15.6 kmh S 11.4 mph18.3 kmh 29.76 in1007.8 mb 0.00 in0.0 mm 0.00 in0.0 mm 0.09 in2.3 mm
09:10 PM 49.6°F9.8°C 44.4°F6.9°C 82% 10.1 mph SW16.3 kmh SW 12.1 mph19.5 kmh 29.76 in1007.8 mb 0.00 in0.0 mm 0.00 in0.0 mm 0.09 in2.3 mm
09:20 PM 49.8°F9.9°C 44.6°F7.0°C 82% 10.7 mph SSW17.2 kmh SSW 14.5 mph23.3 kmh 29.75 in1007.5 mb 0.00 in0.0 mm 0.00 in0.0 mm 0.09 in2.3 mm
09:30 PM 50.0°F10.0°C 44.7°F7.1°C 82% 10.3 mph SSW16.6 kmh SSW 13.0 mph20.9 kmh 29.76 in1007.8 mb 0.00 in0.0 mm 0.00 in0.0 mm 0.09 in2.3 mm
09:40 PM 50.0°F10.0°C 44.7°F7.1°C 82% 8.8 mph SW14.2 kmh SW 12.1 mph19.5 kmh 29.75 in1007.5 mb 0.00 in0.0 mm 0.00 in0.0 mm 0.09 in2.3 mm
09:50 PM 50.0°F10.0°C 44.7°F7.1°C 82% 9.1 mph SSW14.6 kmh SSW 15.9 mph25.6 kmh 29.75 in1007.5 mb 0.00 in0.0 mm 0.00 in0.0 mm 0.09 in2.3 mm
10:00 PM 50.4°F10.2°C 45.1°F7.3°C 82% 9.1 mph SSW14.6 kmh SSW 13.0 mph20.9 kmh 29.75 in1007.5 mb 0.00 in0.0 mm 0.00 in0.0 mm 0.09 in2.3 mm
10:10 PM 50.5°F10.3°C 45.3°F7.4°C 82% 10.4 mph SW16.7 kmh SW 14.5 mph23.3 kmh 29.75 in1007.5 mb 0.00 in0.0 mm 0.00 in0.0 mm 0.09 in2.3 mm
10:20 PM 50.7°F10.4°C 45.4°F7.4°C 82% 12.1 mph SSW19.5 kmh SSW 15.2 mph24.5 kmh 29.75 in1007.5 mb 0.00 in0.0 mm 0.00 in0.0 mm 0.09 in2.3 mm
10:30 PM 50.7°F10.4°C 45.1°F7.3°C 81% 12.6 mph S20.3 kmh S 15.9 mph25.6 kmh 29.75 in1007.5 mb 0.00 in0.0 mm 0.00 in0.0 mm 0.09 in2.3 mm
10:40 PM 50.9°F10.5°C 45.3°F7.4°C 81% 12.0 mph SW19.3 kmh SW 15.9 mph25.6 kmh 29.75 in1007.5 mb 0.00 in0.0 mm 0.00 in0.0 mm 0.09 in2.3 mm
10:50 PM 51.1°F10.6°C 45.5°F7.5°C 81% 11.7 mph SSW18.8 kmh SSW 17.4 mph28.0 kmh 29.74 in1007.1 mb 0.00 in0.0 mm 0.00 in0.0 mm 0.09 in2.3 mm
11:00 PM 51.1°F10.6°C 45.5°F7.5°C 81% 9.7 mph S15.6 kmh S 13.6 mph21.9 kmh 29.74 in1007.1 mb 0.00 in0.0 mm 0.00 in0.0 mm 0.09 in2.3 mm
11:10 PM 51.1°F10.6°C 45.5°F7.5°C 81% 10.1 mph SSW16.3 kmh SSW 13.6 mph21.9 kmh 29.73 in1006.8 mb 0.00 in0.0 mm 0.00 in0.0 mm 0.09 in2.3 mm
11:20 PM 51.1°F10.6°C 45.5°F7.5°C 81% 10.6 mph SW17.1 kmh SW 16.8 mph27.0 kmh 29.72 in1006.4 mb 0.00 in0.0 mm 0.00 in0.0 mm 0.09 in2.3 mm
11:30 PM 51.1°F10.6°C 45.8°F7.7°C 82% 12.1 mph SW19.5 kmh SW 15.9 mph25.6 kmh 29.72 in1006.4 mb 0.00 in0.0 mm 0.00 in0.0 mm 0.09 in2.3 mm
11:40 PM 51.3°F10.7°C 46.0°F7.8°C 82% 11.2 mph SW18.0 kmh SW 16.8 mph27.0 kmh 29.72 in1006.4 mb 0.00 in0.0 mm 0.00 in0.0 mm 0.09 in2.3 mm
11:50 PM 51.4°F10.8°C 46.1°F7.8°C 82% 15.0 mph SW24.1 kmh SW 22.1 mph35.6 kmh 29.71 in1006.1 mb 0.00 in0.0 mm 0.00 in0.0 mm 0.09 in2.3 mm